Tiempo atmosférico en la estación meteorológica de Alajar, Huelva (572 m.)

Fecha
DESCASC
Temp. máxima en grados centígrados (hora)
DESCASC
Temp. mínima en grados centígrados (hora)
DESCASC
Temp. media en grados centígrados
DESCASC
Racha de viento máxima en m/sg (hora)
DESCASC
Velocidad máxima media en intervalos de 10 minutos(hora)
DESCASC
Precipitaciones diarias en mm
DESCASC
Precipitaciones de 00:00 a 06:00 en mm
DESCASC
Precipitaciones de 06:00 a 12:00 en mm
DESCASC
Precipitaciones de 12:00 a 18:00 en mm
DESCASC
Precipitaciones de 18:00 a 24:00 en mm
DESCASC
17-08-2017 38.9 (16:20) 24.3 (23:59) 31.6 14.44 (00:30) 10 (01:30) 0 0 0 0 0
16-08-2017 35.1 (16:10) 19.6 (07:30) 27.3 17.78 (01:50) 11.67 (02:20) 0 0 0 0 0
15-08-2017 36.1 (15:00) 19.6 (00:00) 27.8 14.72 (23:59) 10 (23:59) 0 0 0 0 0
14-08-2017 35.8 (17:50) 17.7 (06:10) 26.8 7.5 (15:40) 4.44 (15:50) 0 0 0 0 0
13-08-2017 35.9 (16:40) 16.5 (00:00) 26.2 8.33 (14:30) 4.17 (14:30) 0 0 0 0 0
12-08-2017 36.2 (17:30) 18.7 (00:00) 27.5 9.17 (15:00) 4.44 (20:10) 0 0 0 0 0
11-08-2017 35.6 (17:50) 19.7 (00:00) 27.6 7.78 (13:20) 4.17 (20:40) 0 0 0 0 0
10-08-2017 33 (17:20) 17.8 (00:00) 25.4 14.17 (01:50) 9.17 (01:50) 0 0 0 0 0
09-08-2017 30.5 (16:20) 17.1 (00:00) 23.8 15.56 (00:30) 10.83 (03:50) 0 0 0 0 0
08-08-2017 31 (18:10) 16.1 (00:00) 23.6 18.33 (08:00) 14.17 (04:50) 0 0 0 0 0
07-08-2017 39.2 (15:50) 22.4 (00:00) 30.8 12.22 (07:40) 7.78 (23:40) 0 0 0 0 0
06-08-2017 39.5 (16:10) 23.4 (00:00) 31.4 15.28 (00:50) 9.72 (00:30) 0 0 0 0 0
05-08-2017 40.1 (15:50) 27.1 (00:00) 33.6 14.44 (01:10) 10.56 (01:50) 0 0 0 0 0
04-08-2017 40.8 (16:50) 25.5 (00:00) 33.1 13.61 (01:00) 10 (04:40) 0 0 0 0 0
03-08-2017 37.9 (14:40) 23.3 (00:00) 30.6 16.39 (02:00) 11.11 (02:20) 0 0 0 0 0
02-08-2017 36.1 (17:20) 18.7 (00:00) 27.4 15 (02:00) 9.17 (01:00) 0 0 0 0 0
01-08-2017 31.4 (17:00) 17 (00:00) 24.2 14.72 (00:30) 10 (00:40) 0 0 0 0 0
31-07-2017 34.4 (17:30) 19.8 (00:00) 27.1 15 (23:40) 9.17 (04:10) 0 0 0 0 0
30-07-2017 37.9 (16:00) 24.5 (00:00) 31.2 15.83 (03:10) 10.83 (02:50) 0 0 0 0 0
29-07-2017 39 (16:10) 25 (00:00) 32 15 (01:10) 11.11 (03:00) 0 0 0 0 0
28-07-2017 38.4 (16:30) 24.2 (00:00) 31.3 12.78 (01:00) 8.06 (00:40) 0 0 0 0 0
27-07-2017 37.9 (17:10) 23.2 (00:00) 30.6 11.39 (02:20) 7.78 (02:40) 0 0 0 0 0
26-07-2017 36 (16:10) 23.1 (00:00) 29.6 10.28 (02:40) 7.78 (02:40) 0 0 0 0 0
25-07-2017 37.5 (17:40) 23.3 (00:00) 30.4 14.17 (01:10) 10.28 (01:30) 0 0 0 0 0
24-07-2017 34.8 (18:20) 19.9 (00:00) 27.3 15 (08:40) 11.11 (08:20) 0 0 0 0 0
23-07-2017 35.6 (17:00) 20.2 (00:00) 27.9 13.89 (03:00) 10.56 (02:30) 0 0 0 0 0
22-07-2017 33.5 (17:10) 15.6 (00:00) 24.6 13.61 (00:30) 8.33 (00:30) 0 0 0 0 0
21-07-2017 29.2 (17:40) 11.1 (00:00) 20.2 15.83 (00:50) 10.56 (00:40) 0 0 0 0 0
20-07-2017 31.1 (17:00) 15.6 (00:00) 23.4 14.72 (23:50) 9.44 (23:30) 0 0 0 0 0
19-07-2017 32.2 (15:40) 17.1 (00:00) 24.7 10 (00:20) 7.22 (00:10) 0 0 0 0 0

Gráficas

Temp. máximas Temp. mínimas Temp. medias Precipitaciones Rachas de viento máximas Velocidades máximas media en intervalos de 10 minutos

Datos horarios

Fecha y hora oficial Temperatura (ºC) Velocidad del viento (km/h) Dirección del viento Racha (km/h) Dirección de racha Precipitación (mm) Presión (hPa) Tendencia (hPa) Humedad (%)
2017-08-17 23:00:00 25.5 2 Este 8 Noroeste 0 952.3 1.3 44
2017-08-17 22:00:00 28.4 6 Noroeste 10 Noroeste 0 951.5 0.5 38
2017-08-17 21:00:00 31.2 7 Noroeste 21 Sudoeste 0 951.2 0.2 32
2017-08-17 20:00:00 33.7 14 Sudoeste 26 Sudoeste 0 951 -0.4 25
2017-08-17 19:00:00 35.3 15 Sudoeste 29 Sudoeste 0 951 -0.9 22
2017-08-17 18:00:00 37.2 15 Sudoeste 29 Sudoeste 0 951 -1.4 17
2017-08-17 17:00:00 37.7 13 Sur 26 Sudoeste 0 951.4 -1.2 15
2017-08-17 16:00:00 37.4 4 Sudeste 25 Sudoeste 0 951.9 -1 14
2017-08-17 15:00:00 37 9 Oeste 23 Sudoeste 0 952.4 -0.5 14
2017-08-17 14:00:00 36.2 11 Oeste 26 Sur 0 952.6 -0.3 14
2017-08-17 13:00:00 36.3 10 Sur 19 Sur 0 952.9 0 14
2017-08-17 12:00:00 35.3 7 Sudoeste 15 Sur 0 952.9 0.2 15
2017-08-17 11:00:00 34 6 Sudeste 13 Sur 0 952.9 0.5 15
2017-08-17 10:00:00 30.5 2 Norte 5 Nordeste 0 952.9 0.9 24
2017-08-17 09:00:00 26.3 4 Norte 13 Norte 0 952.7 0.9 30
2017-08-17 08:00:00 25.2 4 Norte 18 Nordeste 0 952.4 0.6 30
2017-08-17 07:00:00 26.1 9 Nordeste 25 Nordeste 0 952 0.2 28
2017-08-17 06:00:00 26.6 13 Norte 32 Norte 0 951.8 -0.4 28
2017-08-17 05:00:00 26.4 22 Norte 39 Norte 0 951.8 -0.7 31
2017-08-17 04:00:00 26.3 24 Norte 41 Nordeste 0 951.8 -0.7 30
2017-08-17 03:00:00 25.6 27 Norte 44 Nordeste 0 952.2 -0.6 33
2017-08-17 02:00:00 24.6 32 Norte 50 Norte 0 952.5 -0.3 37
2017-08-17 01:00:00 25.8 32 Norte 52 Nordeste 0 952.5 -0.1 32
2017-08-17 00:00:00 26.9 31 Norte 49 Nordeste 0 952.8 0.4 28
2017-08-16 23:00:00 28 24 Norte 41 Nordeste 0 952.8 0.6 25
2017-08-16 22:00:00 29.5 22 Norte 37 Norte 0 952.6 0.3 20
2017-08-16 21:00:00 30.6 20 Norte 39 Norte 0 952.4 -0.1 20
2017-08-16 20:00:00 32.7 18 Norte 33 Norte 0 952.2 -0.5 16
2017-08-16 19:00:00 33.9 14 Norte 29 Norte 0 952.3 -0.8 13
2017-08-16 18:00:00 34.3 16 Norte 34 Norte 0 952.5 -0.9 13
2017-08-16 17:00:00 34.6 14 Nordeste 28 Norte 0 952.7 -1.1 16
2017-08-16 16:00:00 34.6 12 Norte 33 Norte 0 953.1 -1.1 15
2017-08-16 15:00:00 33.9 12 Norte 24 Noroeste 0 953.4 -1 13
2017-08-16 14:00:00 34.1 8 Noroeste 24 Noroeste 0 953.8 -0.4 12
2017-08-16 13:00:00 31.7 13 Norte 21 Noroeste 0 954.2 0.1 18
2017-08-16 12:00:00 31.4 4 Sur 12 Sudeste 0 954.4 0.5 17
2017-08-16 11:00:00 28.9 4 Oeste 11 Sudoeste 0 954.2 0.9 18
2017-08-16 10:00:00 25.9 7 Sudoeste 16 Norte 0 954.1 1.1 25
2017-08-16 09:00:00 22 6 Noroeste 17 Nordeste 0 953.9 1.3 34
2017-08-16 08:00:00 20.9 5 Sudoeste 26 Nordeste 0 953.3 0.8 37
2017-08-16 07:00:00 21.4 5 Sudoeste 23 Norte 0 953 0.3 29
2017-08-16 06:00:00 23.4 13 Norte 49 Nordeste 0 952.6 -0.3 24
2017-08-16 05:00:00 22.4 21 Norte 48 Nordeste 0 952.5 -0.6 37
2017-08-16 04:00:00 22.8 18 Norte 39 Norte 0 952.7 -0.6 37
2017-08-16 03:00:00 22.9 26 Norte 59 Nordeste 0 952.9 -0.3 38
2017-08-16 02:00:00 23.4 40 Nordeste 64 Nordeste 0 953.1 -0.2 37
2017-08-16 01:00:00 24.7 38 Norte 55 Norte 0 953.3 0.6 33
2017-08-16 00:00:00 26.3 36 Norte 53 Norte 0 953.2 0.9 26
2017-08-15 23:00:00 27.4 27 Norte 44 Norte 0 953.3 1.3 27
2017-08-15 22:00:00 28.8 24 Norte 42 Norte 0 952.7 0.7 24
2017-08-15 21:00:00 30 25 Norte 37 Norte 0 952.3 0.4 22
2017-08-15 20:00:00 31.7 22 Norte 32 Norte 0 952 0 19
2017-08-15 19:00:00 33.9 14 Norte 35 Nordeste 0 952 -0.1 17
2017-08-15 18:00:00 34.6 15 Norte 31 Norte 0 951.9 -0.3 16
2017-08-15 17:00:00 35.3 17 Norte 31 Noroeste 0 952 -0.5 13
2017-08-15 16:00:00 34.8 15 Norte 30 Noroeste 0 952.1 -0.7 14
2017-08-15 15:00:00 34.5 14 Norte 30 Sudoeste 0 952.2 -0.4 17
2017-08-15 14:00:00 34.4 12 Sur 26 Sudoeste 0 952.5 -0.1 23
2017-08-15 13:00:00 34 9 Sudoeste 19 Sudoeste 0 952.8 0.4 22
2017-08-15 12:00:00 31.9 7 Sudoeste 14 Sudoeste 0 952.6 0.5 25
2017-08-15 11:00:00 29.6 7 Sudoeste 11 Sudoeste 0 952.6 0.8 32
2017-08-15 10:00:00 26.5 2 Noroeste 7 Nordeste 0 952.4 1.2 40
2017-08-15 09:00:00 21.9 3 Este 8 Nordeste 0 952.1 1.2 54
2017-08-15 08:00:00 20.7 8 Nordeste 11 Nordeste 0 951.8 0.9 51
2017-08-15 07:00:00 20.8 8 Nordeste 12 Nordeste 0 951.2 0.7 48
2017-08-15 06:00:00 20.5 2 Norte 8 Nordeste 0 950.9 0.5 50
2017-08-15 05:00:00 21.4 2 Sudoeste 7 Sur 0 950.9 0.5 59
2017-08-15 04:00:00 23.2 3 Oeste 19 Noroeste 0 950.5 0.3 48
2017-08-15 03:00:00 24.3 8 Noroeste 22 Norte 0 950.4 -0.1 45
2017-08-15 02:00:00 24.9 12 Norte 40 Norte 0 950.4 -0.1 45
2017-08-15 01:00:00 25.2 26 Norte 41 Norte 0 950.2 0.4 41
2017-08-15 00:00:00 23.8 3 Sudoeste 10 Oeste 0 950.5 1.7 44
2017-08-14 23:00:00 24.3 3 Este 11 Noroeste 0 950.5 2.1 46
2017-08-14 22:00:00 26.7 4 Noroeste 10 Noroeste 0 949.8 1.6 39
2017-08-14 21:00:00 29.3 8 Noroeste 23 Noroeste 0 948.8 0.6 29
2017-08-14 20:00:00 32.6 10 Noroeste 24 Noroeste 0 948.4 0 24
2017-08-14 19:00:00 34.5 11 Oeste 27 Sur 0 948.2 -0.6 22
2017-08-14 18:00:00 35.5 13 Sudoeste 24 Sudoeste 0 948.2 -0.9 22
2017-08-14 17:00:00 34.8 6 Sudoeste 21 Sudoeste 0 948.4 -1.1 22
2017-08-14 16:00:00 35.2 8 Sudoeste 27 Sudoeste 0 948.8 -0.9 23
2017-08-14 15:00:00 32.8 8 Sudoeste 21 Sudoeste 0 949.1 -0.8 25
2017-08-14 14:00:00 32.1 8 Sur 21 Sudoeste 0 949.5 -0.1 26
2017-08-14 13:00:00 31.5 8 Sudoeste 19 Sudoeste 0 949.7 0.2 27
2017-08-14 12:00:00 29.7 6 Sur 16 Sudoeste 0 949.9 0.8 31
2017-08-14 11:00:00 28.2 5 Sur 11 Sur 0 949.6 0.5 34
2017-08-14 10:00:00 25.9 2 Sudoeste 6 Oeste 0 949.5 0.6 41
2017-08-14 09:00:00 20.5 3 Noroeste 5 Noroeste 0 949.1 0.3 55
2017-08-14 08:00:00 18.4 3 Norte 11 Nordeste 0 949.1 0.1 58
2017-08-14 07:00:00 17.8 2 Nordeste 10 Nordeste 0 948.9 -0.2 65
2017-08-14 06:00:00 18 3 Noroeste 8 Nordeste 0 948.8 -0.3 72
2017-08-14 05:00:00 18.7 5 Nordeste 9 Nordeste 0 949 -0.4 68
2017-08-14 04:00:00 19.1 5 Nordeste 8 Nordeste 0 949.1 -0.4 65
2017-08-14 03:00:00 19.6 4 Nordeste 10 Nordeste 0 949.1 -0.8 62
2017-08-14 02:00:00 20.3 3 Norte 11 Norte 0 949.4 -0.4 64
2017-08-14 01:00:00 21.1 3 Sudeste 11 Nordeste 0 949.5 0.4 61
2017-08-14 00:00:00 22.9 6 Oeste 9 Oeste 0 949.9 1.4 54
2017-08-13 23:00:00 24.2 5 Noroeste 21 Sudoeste 0 949.8 1.7 48
2017-08-13 22:00:00 26.8 5 Oeste 17 Oeste 0 949.1 1 39
2017-08-13 21:00:00 29.5 8 Oeste 23 Oeste 0 948.5 0.1 32
2017-08-13 20:00:00 32.3 13 Sudoeste 26 Sudoeste 0 948.1 -0.7 26
2017-08-13 19:00:00 35.2 6 Sudeste 21 Sudeste 0 948.1 -1.1 16
2017-08-13 18:00:00 35.6 7 Sudeste 26 Este 0 948.4 -1.3 17
2017-08-13 17:00:00 35.4 5 Nordeste 25 Sudeste 0 948.8 -1.3 18
2017-08-13 16:00:00 34.5 6 Este 27 Sur 0 949.2 -1.5 19
2017-08-13 15:00:00 35.2 12 Sur 30 Sur 0 949.7 -1.3 18
2017-08-13 14:00:00 33.9 9 Sudeste 26 Sudeste 0 950.1 -0.9 20
2017-08-13 13:00:00 32.6 13 Sur 24 Sudeste 0 950.7 -0.2 22
2017-08-13 12:00:00 30.8 12 Sur 24 Sur 0 951 0.4 25
2017-08-13 11:00:00 29 6 Sur 13 Sur 0 951 0.6 31
2017-08-13 10:00:00 26.1 4 Sur 7 Sur 0 950.9 0.5 39
2017-08-13 09:00:00 20.3 3 Nordeste 8 Nordeste 0 950.6 0 56
2017-08-13 08:00:00 17.4 2 Sudoeste 8 Nordeste 0 950.4 -0.5 65
2017-08-13 07:00:00 17.1 5 Nordeste 9 Nordeste 0 950.4 -0.3 67
2017-08-13 06:00:00 17.5 4 Nordeste 7 Nordeste 0 950.6 -0.3 67
2017-08-13 05:00:00 18.3 4 Nordeste 9 Nordeste 0 950.9 -0.3 61
2017-08-13 04:00:00 19.7 5 Nordeste 9 Este 0 950.7 -0.9 57
2017-08-13 03:00:00 20.8 4 Sur 8 Sur 0 950.9 -1.1 55
2017-08-13 02:00:00 20.9 2 Sur 7 Este 0 951.2 -1 51
2017-08-13 01:00:00 20.7 3 Norte 8 Noroeste 0 951.6 -0.2 57
2017-08-13 00:00:00 22.8 3 Noroeste 10 Oeste 0 952 0.4 51
2017-08-12 23:00:00 23.9 5 Norte 10 Oeste 0 952.2 1.2 48
2017-08-12 22:00:00 26.5 0 Calma 16 Oeste 0 951.8 0.9 41
2017-08-12 21:00:00 29.1 9 Sudoeste 29 Oeste 0 951.6 0.5 35
2017-08-12 20:00:00 32.8 14 Sudoeste 27 Sudoeste 0 951 -0.4 26
2017-08-12 19:00:00 34.7 9 Sur 25 Sur 0 950.9 -1.1 18
2017-08-12 18:00:00 35.3 8 Sudeste 23 Sudeste 0 951.1 -1.5 17
2017-08-12 17:00:00 35.5 13 Sudeste 28 Nordeste 0 951.4 -1.5 16
2017-08-12 16:00:00 35.5 9 Nordeste 26 Sudeste 0 952 -1.3 15
2017-08-12 15:00:00 34.7 13 Sudeste 33 Sur 0 952.6 -0.8 16
2017-08-12 14:00:00 34.3 9 Sudoeste 25 Sur 0 952.9 -0.3 21
2017-08-12 13:00:00 31.9 12 Sudeste 26 Sur 0 953.3 0.2 23
2017-08-12 12:00:00 30.7 10 Sur 21 Sur 0 953.4 0.6 31
2017-08-12 11:00:00 28.2 10 Sudeste 21 Sudeste 0 953.2 0.9 36
2017-08-12 10:00:00 26.1 5 Sur 13 Sur 0 953.1 1.3 39
2017-08-12 09:00:00 21.8 5 Este 14 Este 0 952.8 1 40
2017-08-12 08:00:00 19.9 5 Este 9 Este 0 952.3 0.2 42
2017-08-12 07:00:00 19.4 2 Norte 7 Este 0 951.8 -0.4 39
2017-08-12 06:00:00 19.5 6 Nordeste 9 Nordeste 0 951.8 -0.8 35
2017-08-12 05:00:00 19.3 4 Este 11 Nordeste 0 952.1 -0.8 36
2017-08-12 04:00:00 19.6 0 Calma 8 Sudoeste 0 952.2 -0.6 53
2017-08-12 03:00:00 19.9 7 Nordeste 10 Nordeste 0 952.6 0 60
2017-08-12 02:00:00 21.1 4 Norte 6 Nordeste 0 952.9 0.3 45
2017-08-12 01:00:00 22.7 3 Oeste 13 Nordeste 0 952.8 0.8 23
2017-08-12 00:00:00 24.2 8 Nordeste 13 Este 0 952.6 1.6 21
2017-08-11 23:00:00 24.3 8 Nordeste 12 Nordeste 0 952.6 1.9 22
2017-08-11 22:00:00 26.1 9 Nordeste 15 Oeste 0 952 1.2 23
2017-08-11 21:00:00 30.4 15 Nordeste 27 Nordeste 0 951 -0.2 14
2017-08-11 20:00:00 33.4 13 Norte 19 Norte 0 950.7 -1.1 14
2017-08-11 19:00:00 34.2 7 Este 22 Este 0 950.8 -1.5 16
2017-08-11 18:00:00 34.6 5 Nordeste 19 Nordeste 0 951.2 -1.6 17
2017-08-11 17:00:00 33.8 9 Nordeste 23 Este 0 951.8 -1.5 19
2017-08-11 16:00:00 33.2 9 Norte 27 Sudeste 0 952.3 -1.3 18
2017-08-11 15:00:00 33.9 8 Sudoeste 26 Este 0 952.8 -1.1 20
2017-08-11 14:00:00 32.9 8 Este 28 Este 0 953.3 -0.5 21
2017-08-11 13:00:00 30.9 10 Este 24 Este 0 953.6 0.2 22
2017-08-11 12:00:00 28.9 12 Sudeste 23 Sur 0 953.9 0.7 36
2017-08-11 11:00:00 27.3 10 Sudeste 22 Sudeste 0 953.8 0.7 43
2017-08-11 10:00:00 25.7 10 Sudeste 21 Sudeste 0 953.4 0.3 45
2017-08-11 09:00:00 22.8 3 Sudeste 12 Este 0 953.2 0.2 55
2017-08-11 08:00:00 20.4 6 Este 11 Este 0 953.1 0 51
2017-08-11 07:00:00 20.2 5 Este 11 Nordeste 0 953.1 0.1 23
2017-08-11 06:00:00 20 5 Nordeste 9 Nordeste 0 953 -0.5 25
2017-08-11 05:00:00 20.1 3 Este 8 Norte 0 953.1 -0.9 22
2017-08-11 04:00:00 20.4 5 Nordeste 14 Norte 0 953 -0.7 21
2017-08-11 03:00:00 21.1 6 Norte 14 Nordeste 0 953.5 -0.3 22
2017-08-11 02:00:00 24 8 Este 26 Nordeste 0 954 0.6 20
2017-08-11 01:00:00 23.9 10 Nordeste 25 Nordeste 0 953.7 1.2 18
2017-08-11 00:00:00 23.9 6 Este 26 Nordeste 0 953.8 1.3 20
2017-08-10 23:00:00 24.8 12 Nordeste 35 Nordeste 0 953.4 1 21
2017-08-10 22:00:00 25.2 20 Nordeste 27 Nordeste 0 952.5 0 19
2017-08-10 21:00:00 27.9 15 Nordeste 27 Nordeste 0 952.5 0.1 17
2017-08-10 20:00:00 30.6 12 Nordeste 26 Nordeste 0 952.4 -0.4 15
2017-08-10 19:00:00 31.5 10 Este 22 Este 0 952.5 -0.8 14
2017-08-10 18:00:00 32.6 7 Este 19 Nordeste 0 952.4 -1.3 16
2017-08-10 17:00:00 32.2 7 Este 26 Nordeste 0 952.8 -1.2 16
2017-08-10 16:00:00 32.8 6 Este 27 Este 0 953.3 -0.8 16
2017-08-10 15:00:00 31 10 Sudeste 29 Sudeste 0 953.7 -0.2 17
2017-08-10 14:00:00 30.8 10 Sudeste 27 Sudeste 0 954 0.6 22
2017-08-10 13:00:00 29.5 12 Sudeste 28 Este 0 954.1 1.1 17
2017-08-10 12:00:00 27.6 9 Este 21 Este 0 953.9 1.6 28
2017-08-10 11:00:00 25.2 11 Este 27 Este 0 953.4 1.7 31
2017-08-10 10:00:00 23.5 13 Este 31 Nordeste 0 953 1.8 32
2017-08-10 09:00:00 21.1 15 Este 34 Este 0 952.3 1.4 35
2017-08-10 08:00:00 18.8 8 Este 22 Este 0 951.7 1.1 38
2017-08-10 07:00:00 17.9 11 Nordeste 30 Nordeste 0 951.2 0.3 33
2017-08-10 06:00:00 18.6 12 Nordeste 48 Norte 0 950.9 -0.1 31
2017-08-10 05:00:00 19 31 Norte 47 Nordeste 0 950.6 -0.5 30
2017-08-10 04:00:00 19.6 30 Nordeste 44 Nordeste 0 950.9 0.1 29
2017-08-10 03:00:00 20.1 30 Nordeste 45 Nordeste 0 951 0.2 32
2017-08-10 02:00:00 20 32 Nordeste 51 Norte 0 951.1 0.7 44
2017-08-10 01:00:00 21 32 Norte 49 Nordeste 0 950.8 1 42
2017-08-10 00:00:00 22.2 27 Norte 43 Norte 0 950.8 1.6 37
2017-08-09 23:00:00 23.8 17 Norte 31 Norte 0 950.4 1.5 29
2017-08-09 22:00:00 24.6 18 Norte 38 Norte 0 949.8 0.8 26
2017-08-09 21:00:00 25.9 21 Norte 36 Norte 0 949.2 0 22
2017-08-09 20:00:00 27.5 17 Norte 37 Norte 0 948.9 -0.4 22
2017-08-09 19:00:00 28.5 19 Norte 35 Norte 0 949 -0.9 23
2017-08-09 18:00:00 29.2 16 Norte 32 Noroeste 0 949.2 -0.9 20
2017-08-09 17:00:00 30.3 15 Norte 31 Nordeste 0 949.3 -1 19
2017-08-09 16:00:00 29.2 16 Norte 29 Nordeste 0 949.9 -0.5 21
2017-08-09 15:00:00 28.8 14 Norte 32 Nordeste 0 950.1 -0.3 22
2017-08-09 14:00:00 28.9 15 Norte 27 Nordeste 0 950.3 0 26
2017-08-09 13:00:00 26.8 17 Nordeste 30 Nordeste 0 950.4 0.4 29
2017-08-09 12:00:00 26.4 14 Nordeste 25 Norte 0 950.4 0.8 32
2017-08-09 11:00:00 22.6 17 Nordeste 37 Nordeste 0 950.3 0.8 41
2017-08-09 10:00:00 18.3 22 Norte 49 Nordeste 0 950 0.6 54
2017-08-09 09:00:00 17.8 17 Norte 35 Nordeste 0 949.6 0.2 54
2017-08-09 08:00:00 17.2 14 Norte 39 Norte 0 949.5 0 55
2017-08-09 07:00:00 18 19 Norte 37 Norte 0 949.4 0 53
2017-08-09 06:00:00 18.2 22 Norte 42 Norte 0 949.4 -0.3 52
2017-08-09 05:00:00 18.8 29 Norte 49 Nordeste 0 949.5 -0.7 50
2017-08-09 04:00:00 18.4 36 Norte 53 Nordeste 0 949.4 -0.8 52
2017-08-09 03:00:00 18.7 34 Nordeste 50 Nordeste 0 949.7 -0.4 50
2017-08-09 02:00:00 18.3 25 Norte 44 Nordeste 0 950.2 -0.1 53
2017-08-09 01:00:00 19.5 32 Norte 56 Norte 0 950.2 0.1 51
2017-08-09 00:00:00 21.4 35 Norte 58 Norte 0 950.1 0.4 44
2017-08-08 23:00:00 23.5 19 Norte 28 Norte 0 950.3 0.7 26
2017-08-08 22:00:00 24.7 17 Norte 27 Norte 0 950.1 0.3 23
2017-08-08 21:00:00 26.3 12 Norte 31 Norte 0 949.7 -0.2 18
2017-08-08 20:00:00 28 19 Norte 35 Norte 0 949.6 -0.5 17
2017-08-08 19:00:00 28.8 17 Norte 33 Noroeste 0 949.8 -0.7 15
2017-08-08 18:00:00 30.1 14 Norte 32 Norte 0 949.9 -0.9 14
2017-08-08 17:00:00 29.4 17 Norte 33 Norte 0 950.1 -1 19
2017-08-08 16:00:00 29.1 21 Noroeste 41 Noroeste 0 950.5 -0.5 17
2017-08-08 15:00:00 27.9 15 Norte 31 Norte 0 950.8 -0.3 21
2017-08-08 14:00:00 28.6 15 Nordeste 41 Nordeste 0 951.1 0.7 24
2017-08-08 13:00:00 26.9 18 Nordeste 36 Norte 0 951 1.1 25
2017-08-08 12:00:00 25.2 11 Nordeste 42 Norte 0 951.1 2.2 34
2017-08-08 11:00:00 22.4 20 Nordeste 44 Nordeste 0 950.4 2.1 43
2017-08-08 10:00:00 20.4 21 Nordeste 57 Nordeste 0 949.9 1.8 49
2017-08-08 09:00:00 18.1 39 Norte 63 Norte 0 948.9 0.9 54
2017-08-08 08:00:00 16.4 50 Norte 66 Nordeste 0 948.3 0.1 61
2017-08-08 07:00:00 17.6 46 Norte 62 Norte 0 948.1 -0.5 50
2017-08-08 06:00:00 19.2 46 Norte 65 Nordeste 0 948 -1.1 41
2017-08-08 05:00:00 18.6 48 Norte 65 Nordeste 0 948.2 -1.1 45
2017-08-08 04:00:00 19.1 48 Norte 61 Nordeste 0 948.6 -1.3 41
2017-08-08 03:00:00 20.1 30 Nordeste 57 Nordeste 0 949.1 -0.9 35
2017-08-08 02:00:00 21.4 30 Nordeste 53 Nordeste 0 949.3 -0.5 32
2017-08-08 01:00:00 22.3 10 Norte 40 Norte 0 949.9 0.7 40
2017-08-08 00:00:00 24 24 Norte 40 Norte 0 950 1.3 32
2017-08-07 23:00:00 25.8 24 Norte 39 Norte 0 949.8 1.3 26
2017-08-07 22:00:00 28.2 13 Noroeste 26 Noroeste 0 949.2 0.5 20
2017-08-07 21:00:00 30.1 8 Noroeste 24 Oeste 0 948.7 -0.2 16
2017-08-07 20:00:00 33.2 13 Noroeste 30 Noroeste 0 948.5 -0.3 12
2017-08-07 19:00:00 34.4 15 Noroeste 31 Noroeste 0 948.7 -0.3 9
2017-08-07 18:00:00 35.9 17 Noroeste 33 Noroeste 0 948.9 -0.3 8
2017-08-07 17:00:00 37.5 15 Noroeste 29 Noroeste 0 948.8 -0.8 7
2017-08-07 16:00:00 38.1 11 Noroeste 26 Sur 0 949 -1.1 7
2017-08-07 15:00:00 37.8 18 Sudoeste 36 Sudoeste 0 949.2 -0.9 7
2017-08-07 14:00:00 37.5 11 Sudoeste 20 Sudoeste 0 949.6 0.3 7
2017-08-07 13:00:00 36.1 8 Sudoeste 16 Oeste 0 950.1 0.6 8
2017-08-07 12:00:00 33.9 8 Oeste 34 Nordeste 0 950.1 0.9 9
2017-08-07 11:00:00 31.3 7 Este 28 Norte 0 949.3 0.1 8
2017-08-07 10:00:00 27.5 6 Norte 25 Noroeste 0 949.5 -0.6 9
2017-08-07 09:00:00 26 9 Sur 27 Norte 0 949.2 -0.4 19
2017-08-07 08:00:00 25.8 6 Noroeste 44 Norte 0 949.2 -0.2 22
2017-08-07 07:00:00 22.4 3 Oeste 16 Oeste 0 950.1 0.4 37
2017-08-07 06:00:00 24.6 12 Sudoeste 18 Sudoeste 0 949.6 -0.6 31
2017-08-07 05:00:00 25.1 6 Oeste 12 Oeste 0 949.4 -1.2 29
2017-08-07 04:00:00 24.3 6 Oeste 11 Oeste 0 949.7 -0.5 34
2017-08-07 03:00:00 25.7 4 Noroeste 14 Norte 0 950.2 -0.5 29
2017-08-07 02:00:00 26.4 4 Norte 29 Norte 0 950.6 0.6 26
2017-08-07 01:00:00 28.2 13 Norte 31 Norte 0 950.2 0.6 24
2017-08-07 00:00:00 28.6 12 Norte 30 Norte 0 950.7 1.3 20
2017-08-06 23:00:00 29.1 12 Noroeste 26 Noroeste 0 950 1 18
2017-08-06 22:00:00 29.2 13 Norte 19 Norte 0 949.6 0.6 18
2017-08-06 21:00:00 31.5 6 Norte 15 Norte 0 949.4 0.3 18
2017-08-06 20:00:00 35.2 10 Noroeste 26 Noroeste 0 949 -0.1 11
2017-08-06 19:00:00 36.7 12 Noroeste 24 Noroeste 0 949 -0.3 9
2017-08-06 18:00:00 38 13 Noroeste 24 Noroeste 0 949.1 -0.6 7
2017-08-06 17:00:00 38.7 8 Noroeste 27 Noroeste 0 949.1 -0.9 7
2017-08-06 16:00:00 38.6 13 Oeste 27 Oeste 0 949.3 -1 8
2017-08-06 15:00:00 38.9 11 Sudoeste 25 Sudoeste 0 949.7 -0.8 9
2017-08-06 14:00:00 36.9 6 Sudoeste 21 Oeste 0 950 -0.2 10
2017-08-06 13:00:00 36 6 Oeste 21 Sudoeste 0 950.3 0.4 12
2017-08-06 12:00:00 34.1 8 Sudoeste 17 Sudoeste 0 950.5 1 14
2017-08-06 11:00:00 31.9 8 Sudoeste 14 Sudoeste 0 950.2 1 18
2017-08-06 10:00:00 30.1 4 Norte 12 Sudeste 0 949.9 1 13
2017-08-06 09:00:00 26.4 7 Sur 17 Norte 0 949.5 0.4 24
2017-08-06 08:00:00 25.2 4 Norte 33 Norte 0 949.2 -0.2 23
2017-08-06 07:00:00 25.7 23 Norte 35 Norte 0 948.9 -0.2 24
2017-08-06 06:00:00 25.3 14 Norte 30 Noroeste 0 949.1 0 26
2017-08-06 05:00:00 24 5 Sudoeste 32 Norte 0 949.4 -0.3 32
2017-08-06 04:00:00 24 18 Norte 44 Nordeste 0 949.1 -0.6 26
2017-08-06 03:00:00 25 28 Norte 51 Nordeste 0 949.1 -1.1 30
2017-08-06 02:00:00 24.2 22 Norte 48 Norte 0 949.7 -0.2 35
2017-08-06 01:00:00 25.1 31 Norte 55 Norte 0 949.7 0.3 31
2017-08-06 00:00:00 27.1 32 Norte 47 Norte 0 950.2 1.1 30
2017-08-05 23:00:00 28.7 26 Norte 38 Norte 0 949.9 1.1 27
2017-08-05 22:00:00 30 18 Norte 26 Noroeste 0 949.4 0.6 27
2017-08-05 21:00:00 32.3 13 Norte 27 Norte 0 949.1 0.3 26
2017-08-05 20:00:00 35.7 12 Noroeste 27 Noroeste 0 948.8 -0.2 20
2017-08-05 19:00:00 36.9 15 Noroeste 30 Noroeste 0 948.8 -0.5 17
2017-08-05 18:00:00 38.5 15 Oeste 35 Noroeste 0 948.8 -0.9 14
2017-08-05 17:00:00 38.7 15 Noroeste 30 Noroeste 0 949 -1.2 15
2017-08-05 16:00:00 39.8 11 Oeste 26 Oeste 0 949.3 -1.1 15
2017-08-05 15:00:00 37.4 12 Norte 31 Oeste 0 949.7 -0.8 21
2017-08-05 14:00:00 37.2 15 Noroeste 25 Noroeste 0 950.2 -0.3 19
2017-08-05 13:00:00 37.3 9 Noroeste 22 Noroeste 0 950.4 0 19
2017-08-05 12:00:00 37.1 6 Sudoeste 15 Sudoeste 0 950.5 0.8 23
2017-08-05 11:00:00 34.5 4 Sur 10 Sur 0 950.5 1.3 25
2017-08-05 10:00:00 32.3 4 Sudoeste 23 Norte 0 950.4 1.4 28
2017-08-05 09:00:00 29.4 17 Norte 40 Norte 0 949.7 0.6 33
2017-08-05 08:00:00 28.2 28 Norte 40 Norte 0 949.2 0 36
2017-08-05 07:00:00 28.1 28 Norte 39 Norte 0 949 -0.6 35
2017-08-05 06:00:00 27.8 27 Norte 36 Nordeste 0 949.1 -0.8 35
2017-08-05 05:00:00 28.2 30 Norte 41 Norte 0 949.2 -0.7 33
2017-08-05 04:00:00 28.8 28 Norte 41 Norte 0 949.6 -0.5 28
2017-08-05 03:00:00 28.9 32 Norte 51 Nordeste 0 949.9 -0.2 32
2017-08-05 02:00:00 28.9 37 Norte 52 Nordeste 0 949.9 -0.2 31
2017-08-05 01:00:00 29.1 26 Norte 50 Norte 0 950.1 0.5 35
2017-08-05 00:00:00 30.3 29 Norte 45 Norte 0 950.1 1.2 35
2017-08-04 23:00:00 32.1 28 Norte 45 Norte 0 950.1 1.5 31
2017-08-04 22:00:00 33.3 10 Norte 23 Norte 0 949.6 0.9 27
2017-08-04 21:00:00 35.5 15 Norte 28 Noroeste 0 948.9 0 22
2017-08-04 20:00:00 37.9 16 Norte 30 Norte 0 948.6 -0.8 20
2017-08-04 19:00:00 39.9 4 Noroeste 18 Nordeste 0 948.7 -1.4 18
2017-08-04 18:00:00 39.8 9 Norte 19 Nordeste 0 948.9 -1.7 17
2017-08-04 17:00:00 39.8 12 Norte 23 Norte 0 949.4 -1.8 17
2017-08-04 16:00:00 38.7 10 Norte 27 Norte 0 950.1 -1.6 18
2017-08-04 15:00:00 39.7 6 Sur 18 Este 0 950.6 -1.4 18
2017-08-04 14:00:00 39 6 Este 18 Nordeste 0 951.2 -0.6 19
2017-08-04 13:00:00 36.2 10 Norte 21 Norte 0 951.7 0.2 22
2017-08-04 12:00:00 35.9 5 Nordeste 27 Norte 0 952 0.9 25
2017-08-04 11:00:00 33.4 17 Norte 30 Norte 0 951.8 1 30
2017-08-04 10:00:00 30.9 17 Nordeste 34 Nordeste 0 951.5 0.7 38
2017-08-04 09:00:00 28.2 23 Norte 34 Norte 0 951.1 0.5 44
2017-08-04 08:00:00 26.6 25 Norte 36 Norte 0 950.8 0 47
2017-08-04 07:00:00 26.1 26 Norte 41 Norte 0 950.8 -0.1 48
2017-08-04 06:00:00 25.7 29 Norte 47 Norte 0 950.6 -0.5 50
2017-08-04 05:00:00 26 34 Norte 48 Norte 0 950.8 -0.6 50
2017-08-04 04:00:00 25.6 35 Norte 46 Norte 0 950.9 -0.6 51
2017-08-04 03:00:00 25.6 32 Norte 45 Norte 0 951.1 -0.7 53
2017-08-04 02:00:00 26.4 33 Norte 48 Norte 0 951.4 -0.4 50
2017-08-04 01:00:00 27.7 33 Norte 49 Nordeste 0 951.5 0 46
2017-08-04 00:00:00 28.9 27 Norte 41 Norte 0 951.8 0.6 38
2017-08-03 23:00:00 30.5 20 Norte 31 Norte 0 951.8 0.9 27
2017-08-03 22:00:00 30.9 17 Norte 34 Norte 0 951.5 0.4 22
2017-08-03 21:00:00 32.7 19 Norte 31 Norte 0 951.2 -0.2 16
2017-08-03 20:00:00 34.7 15 Norte 31 Norte 0 950.9 -0.8 12
2017-08-03 19:00:00 36.1 15 Norte 30 Noroeste 0 951.1 -0.9 11
2017-08-03 18:00:00 36.2 15 Noroeste 28 Noroeste 0 951.4 -0.8 13
2017-08-03 17:00:00 35.9 15 Norte 29 Noroeste 0 951.7 -1 12
2017-08-03 16:00:00 36.7 11 Norte 32 Norte 0 952 -1 13
2017-08-03 15:00:00 36.6 9 Sudeste 28 Sudoeste 0 952.2 -1 15
2017-08-03 14:00:00 37.7 11 Sudoeste 22 Sudoeste 0 952.7 -0.6 14
2017-08-03 13:00:00 36.1 6 Sudoeste 21 Oeste 0 953 -0.2 13
2017-08-03 12:00:00 34.5 6 Sur 16 Sur 0 953.2 0.5 16
2017-08-03 11:00:00 33.1 6 Sudoeste 14 Nordeste 0 953.3 0.9 17
2017-08-03 10:00:00 30.5 4 Norte 30 Nordeste 0 953.2 1 18
2017-08-03 09:00:00 26.8 13 Norte 32 Norte 0 952.7 0.7 19
2017-08-03 08:00:00 25.5 18 Norte 33 Norte 0 952.4 0.5 20
2017-08-03 07:00:00 25.3 13 Norte 40 Norte 0 952.2 0.1 20
2017-08-03 06:00:00 24.7 29 Norte 51 Norte 0 952 -0.1 16
2017-08-03 05:00:00 23.8 31 Norte 55 Nordeste 0 951.9 -0.5 19
2017-08-03 04:00:00 23.8 37 Norte 56 Norte 0 952.1 -0.4 22
2017-08-03 03:00:00 23.4 37 Norte 55 Norte 0 952.1 -0.5 31
2017-08-03 02:00:00 23.8 39 Norte 59 Nordeste 0 952.4 0 33
2017-08-03 01:00:00 24.3 35 Norte 51 Norte 0 952.5 0.9 30
2017-08-03 00:00:00 27 23 Norte 39 Nordeste 0 952.6 1.4 18
2017-08-02 23:00:00 27.8 22 Norte 41 Norte 0 952.4 1.7 18
2017-08-02 22:00:00 28.5 26 Norte 40 Norte 0 951.6 0.9 17
2017-08-02 21:00:00 30.1 17 Norte 28 Noroeste 0 951.2 0.3 20
2017-08-02 20:00:00 33 12 Noroeste 26 Oeste 0 950.7 -0.3 17
2017-08-02 19:00:00 35.1 10 Oeste 22 Noroeste 0 950.7 -0.8 17
2017-08-02 18:00:00 35.5 9 Oeste 23 Oeste 0 950.9 -0.9 16
2017-08-02 17:00:00 34.4 11 Norte 20 Norte 0 951 -1.1 16
2017-08-02 16:00:00 34.6 6 Sur 26 Oeste 0 951.5 -0.9 17
2017-08-02 15:00:00 34.6 10 Sudoeste 23 Sudoeste 0 951.8 -0.6 17
2017-08-02 14:00:00 33.1 6 Sudeste 21 Sudoeste 0 952.1 -0.2 18
2017-08-02 13:00:00 31.7 8 Sudeste 19 Sudeste 0 952.4 0.4 19
2017-08-02 12:00:00 30.3 5 Sudeste 14 Sudoeste 0 952.4 0.6 21
2017-08-02 11:00:00 29.8 4 Sudoeste 11 Sur 0 952.3 0.9 22
2017-08-02 10:00:00 26.9 2 Nordeste 12 Nordeste 0 952 0.8 27
2017-08-02 09:00:00 22.6 6 Norte 30 Nordeste 0 951.8 0.6 32
2017-08-02 08:00:00 21 13 Norte 27 Nordeste 0 951.4 0.2 33
2017-08-02 07:00:00 20.7 14 Norte 35 Norte 0 951.2 -0.2 33
2017-08-02 06:00:00 20 16 Norte 39 Nordeste 0 951.2 -0.4 34
2017-08-02 05:00:00 19.6 25 Norte 41 Nordeste 0 951.2 -0.4 38
2017-08-02 04:00:00 18.8 24 Norte 48 Nordeste 0 951.4 -0.5 44
2017-08-02 03:00:00 19.3 22 Norte 51 Nordeste 0 951.6 -0.1 43
2017-08-02 02:00:00 19.7 32 Norte 54 Nordeste 0 951.6 0.1 44
2017-08-02 01:00:00 20.4 33 Norte 51 Norte 0 951.9 1 43
2017-08-02 00:00:00 21.9 29 Norte 49 Norte 0 951.7 1.6 37
2017-08-01 23:00:00 23.7 30 Norte 50 Norte 0 951.5 1.7 30
2017-08-01 22:00:00 24.8 21 Norte 33 Norte 0 950.9 1.3 26
2017-08-01 21:00:00 26.2 19 Norte 31 Norte 0 950.1 0.5 24
2017-08-01 20:00:00 27.7 19 Norte 30 Norte 0 949.8 0.3 23
2017-08-01 19:00:00 29.9 12 Norte 27 Norte 0 949.6 0.1 21
2017-08-01 18:00:00 30.3 12 Noroeste 30 Noroeste 0 949.6 -0.1 21
2017-08-01 17:00:00 30 12 Norte 27 Noroeste 0 949.5 -0.3 22
2017-08-01 16:00:00 29.4 17 Norte 30 Norte 0 949.5 -0.1 24
2017-08-01 15:00:00 30.2 6 Noroeste 18 Sudoeste 0 949.7 0.2 22
2017-08-01 14:00:00 29.1 6 Sudoeste 23 Sur 0 949.8 0.2 25
2017-08-01 13:00:00 28.6 8 Sudoeste 18 Sur 0 949.6 0.3 26
2017-08-01 12:00:00 23.8 4 Sur 12 Oeste 0 949.5 0.9 33
2017-08-01 11:00:00 21.7 6 Noroeste 14 Oeste 0 949.6 1.9 36
2017-08-01 10:00:00 20.6 5 Nordeste 19 Norte 0 949.3 2.3 35
2017-08-01 09:00:00 19.1 3 Sudoeste 34 Nordeste 0 948.6 1.7 49
2017-08-01 08:00:00 18.8 13 Norte 51 Nordeste 0 947.7 0.9 39
2017-08-01 07:00:00 17.3 33 Norte 47 Norte 0 947 0.1 55
2017-08-01 06:00:00 18.9 17 Norte 33 Norte 0 946.9 -0.4 53
2017-08-01 05:00:00 17.5 16 Norte 35 Nordeste 0 946.8 -0.2 67
2017-08-01 04:00:00 18.3 17 Norte 46 Nordeste 0 946.9 0.1 63
2017-08-01 03:00:00 18.3 14 Norte 47 Nordeste 0 947.3 0.3 61
2017-08-01 02:00:00 18.6 33 Norte 49 Nordeste 0 947 0.3 55
2017-08-01 01:00:00 19.1 36 Norte 53 Norte 0 946.8 0.8 49
2017-08-01 00:00:00 19.8 30 Norte 54 Nordeste 0 947 1.7 44
2017-07-31 23:00:00 21 31 Norte 53 Norte 0 946.7 1.6 35
2017-07-31 22:00:00 22.5 30 Norte 53 Norte 0 946 1 38
2017-07-31 21:00:00 26.2 14 Norte 27 Norte 0 945.3 0.2 23
2017-07-31 20:00:00 28.5 11 Norte 30 Norte 0 945.1 -0.2 18
2017-07-31 19:00:00 30.8 12 Noroeste 26 Noroeste 0 945 -0.8 16
2017-07-31 18:00:00 33.3 15 Sudoeste 28 Sur 0 945.1 -1 13
2017-07-31 17:00:00 33.9 14 Oeste 29 Sudoeste 0 945.3 -1.2 11
2017-07-31 16:00:00 33.8 13 Sudoeste 28 Sudoeste 0 945.8 -0.9 12
2017-07-31 15:00:00 32.3 10 Sur 26 Sudoeste 0 946.1 -0.6 14
2017-07-31 14:00:00 31.7 10 Oeste 22 Sudoeste 0 946.5 0 16
2017-07-31 13:00:00 30.5 6 Oeste 18 Noroeste 0 946.7 0.4 18
2017-07-31 12:00:00 28.3 10 Norte 19 Norte 0 946.7 0.3 19
2017-07-31 11:00:00 27.6 6 Sudoeste 10 Sudoeste 0 946.5 1.1 21
2017-07-31 10:00:00 25.3 4 Sudeste 8 Sur 0 946.3 1 23
2017-07-31 09:00:00 22.4 3 Nordeste 18 Norte 0 946.4 1.2 27
2017-07-31 08:00:00 23.7 14 Norte 33 Norte 0 945.4 -0.3 23
2017-07-31 07:00:00 23.7 20 Norte 33 Norte 0 945.3 -0.4 13
2017-07-31 06:00:00 22.7 12 Norte 40 Norte 0 945.2 -0.9 21
2017-07-31 05:00:00 21.9 23 Norte 49 Norte 0 945.7 -0.9 24
2017-07-31 04:00:00 21.2 33 Norte 47 Norte 0 945.7 -1.2 34
2017-07-31 03:00:00 21.4 24 Norte 46 Norte 0 946.1 -0.8 40
2017-07-31 02:00:00 22.2 23 Norte 47 Norte 0 946.6 -0.3 42
2017-07-31 01:00:00 23.8 28 Norte 53 Norte 0 946.9 0.6 39
2017-07-31 00:00:00 25.5 28 Norte 51 Norte 0 946.9 0.9 36
2017-07-30 23:00:00 27.3 27 Norte 42 Norte 0 946.9 1 32
2017-07-30 22:00:00 28.9 21 Norte 32 Norte 0 946.3 0.1 23
2017-07-30 21:00:00 30.7 15 Norte 26 Norte 0 946 -0.6 20
2017-07-30 20:00:00 33.1 16 Norte 28 Noroeste 0 945.9 -1.1 18
2017-07-30 19:00:00 35.4 13 Noroeste 24 Noroeste 0 946.2 -1.4 15
2017-07-30 18:00:00 36.3 11 Noroeste 31 Noroeste 0 946.6 -1.4 15
2017-07-30 17:00:00 35.5 15 Norte 29 Norte 0 947 -1.5 17
2017-07-30 16:00:00 37.6 10 Oeste 25 Noroeste 0 947.6 -1.3 14
2017-07-30 15:00:00 36.7 7 Sudoeste 23 Oeste 0 948 -1.1 15
2017-07-30 14:00:00 36.2 11 Noroeste 27 Sudoeste 0 948.5 -0.6 16
2017-07-30 13:00:00 35.6 8 Noroeste 21 Oeste 0 948.9 -0.2 16
2017-07-30 12:00:00 33.9 6 Sudoeste 17 Nordeste 0 949.1 0.2 18
2017-07-30 11:00:00 30.6 12 Norte 36 Nordeste 0 949.1 0.5 21
2017-07-30 10:00:00 27.6 19 Norte 40 Norte 0 949.1 0.6 24
2017-07-30 09:00:00 26.2 18 Norte 33 Norte 0 948.9 0.3 22
2017-07-30 08:00:00 26 16 Norte 30 Norte 0 948.6 -0.3 24
2017-07-30 07:00:00 26.3 17 Norte 43 Norte 0 948.5 -0.9 31
2017-07-30 06:00:00 27 26 Norte 43 Norte 0 948.6 -1.2 29
2017-07-30 05:00:00 26.2 30 Norte 49 Nordeste 0 948.9 -1.2 35
2017-07-30 04:00:00 25.9 32 Norte 57 Norte 0 949.4 -1 33
2017-07-30 03:00:00 24.9 38 Norte 55 Nordeste 0 949.8 -1.1 50
2017-07-30 02:00:00 24.9 33 Norte 50 Nordeste 0 950.1 -0.7 58
2017-07-30 01:00:00 26.7 26 Norte 46 Norte 0 950.4 0 49
2017-07-30 00:00:00 29.1 21 Norte 32 Norte 0 950.9 0.7 29
2017-07-29 23:00:00 29.7 17 Norte 24 Norte 0 950.8 0.8 21
2017-07-29 22:00:00 30.7 17 Norte 25 Norte 0 950.4 0.3 21
2017-07-29 21:00:00 32.2 12 Norte 22 Norte 0 950.2 -0.1 23
2017-07-29 20:00:00 34.7 12 Norte 27 Noroeste 0 950 -0.6 20
2017-07-29 19:00:00 35.9 16 Norte 33 Noroeste 0 950.1 -0.7 20
2017-07-29 18:00:00 36.9 15 Nordeste 29 Norte 0 950.3 -1.1 20
2017-07-29 17:00:00 37.6 14 Norte 28 Norte 0 950.6 -1.2 18
2017-07-29 16:00:00 38.9 7 Sudoeste 29 Sudoeste 0 950.8 -1.2 18
2017-07-29 15:00:00 37.2 14 Sudoeste 25 Sudoeste 0 951.4 -0.7 18
2017-07-29 14:00:00 36.8 7 Sudoeste 22 Noroeste 0 951.8 -0.3 15
2017-07-29 13:00:00 34.3 8 Norte 16 Norte 0 952 0.2 20
2017-07-29 12:00:00 33 4 Sudoeste 21 Nordeste 0 952.1 0.8 23
2017-07-29 11:00:00 31.2 12 Norte 21 Norte 0 952.1 1.3 24
2017-07-29 10:00:00 30.2 11 Nordeste 29 Norte 0 951.8 1.1 30
2017-07-29 09:00:00 27.3 17 Nordeste 33 Nordeste 0 951.3 0.7 36
2017-07-29 08:00:00 25.9 19 Norte 35 Nordeste 0 950.8 0.4 38
2017-07-29 07:00:00 25.5 22 Norte 37 Nordeste 0 950.7 0.2 40
2017-07-29 06:00:00 25.7 21 Norte 38 Nordeste 0 950.6 -0.1 42
2017-07-29 05:00:00 25.6 18 Norte 44 Nordeste 0 950.4 -0.5 42
2017-07-29 04:00:00 25.6 26 Norte 54 Norte 0 950.5 -0.6 43
2017-07-29 03:00:00 25.1 40 Nordeste 54 Norte 0 950.7 -0.5 46
2017-07-29 02:00:00 25.8 36 Norte 54 Nordeste 0 950.9 -0.4 42
2017-07-29 01:00:00 26.7 31 Norte 46 Nordeste 0 951.1 0.5 36
2017-07-29 00:00:00 29 27 Norte 42 Norte 0 951.2 1 26
2017-07-28 23:00:00 30.2 21 Norte 35 Norte 0 951.3 1.3 21
2017-07-28 22:00:00 31 20 Norte 28 Norte 0 950.6 0.8 14
2017-07-28 21:00:00 32.8 17 Norte 26 Noroeste 0 950.2 0.2 14
2017-07-28 20:00:00 35.2 14 Norte 28 Noroeste 0 950 -0.1 12
2017-07-28 19:00:00 36.5 14 Norte 24 Norte 0 949.8 -0.7 13
2017-07-28 18:00:00 37.3 12 Norte 27 Noroeste 0 950 -1 16
2017-07-28 17:00:00 37 12 Nordeste 21 Nordeste 0 950.1 -1.3 18
2017-07-28 16:00:00 37.8 8 Sur 25 Sudoeste 0 950.5 -1.1 13
2017-07-28 15:00:00 37.4 9 Oeste 19 Sudoeste 0 951 -0.6 12
2017-07-28 14:00:00 36.4 6 Sur 16 Sur 0 951.4 0.1 11
2017-07-28 13:00:00 34.7 5 Sudoeste 16 Sudoeste 0 951.6 0.7 12
2017-07-28 12:00:00 33 8 Sur 19 Sur 0 951.6 1.2 16
2017-07-28 11:00:00 31.2 4 Sudoeste 11 Sudoeste 0 951.3 1.2 18
2017-07-28 10:00:00 30.2 2 Noroeste 6 Nordeste 0 950.9 1 21
2017-07-28 09:00:00 26.4 2 Noroeste 8 Norte 0 950.4 0.5 20
2017-07-28 08:00:00 25.3 3 Oeste 24 Norte 0 950.1 0.2 16
2017-07-28 07:00:00 27 14 Norte 27 Nordeste 0 949.9 -0.1 12
2017-07-28 06:00:00 26.2 11 Norte 24 Norte 0 949.9 -0.2 15
2017-07-28 05:00:00 26.7 15 Norte 26 Norte 0 949.9 -0.3 14
2017-07-28 04:00:00 26.3 16 Norte 33 Norte 0 950 -0.1 20
2017-07-28 03:00:00 25.6 21 Norte 43 Norte 0 950.1 0.1 36
2017-07-28 02:00:00 24.5 20 Norte 43 Noroeste 0 950.2 0.4 45
2017-07-28 01:00:00 26.2 28 Norte 46 Norte 0 950.1 0.6 40
2017-07-28 00:00:00 27.7 24 Norte 40 Norte 0 950 1 32
2017-07-27 23:00:00 28.8 23 Noroeste 35 Norte 0 949.8 1.2 22
2017-07-27 22:00:00 28.9 14 Norte 22 Norte 0 949.5 0.8 21
2017-07-27 21:00:00 32 8 Norte 23 Noroeste 0 949 0.1 18
2017-07-27 20:00:00 35 12 Noroeste 25 Noroeste 0 948.6 -0.7 15
2017-07-27 19:00:00 36.5 13 Noroeste 27 Noroeste 0 948.7 -0.9 14
2017-07-27 18:00:00 37.2 12 Oeste 28 Noroeste 0 948.9 -1 13
2017-07-27 17:00:00 37.6 11 Sudoeste 28 Sur 0 949.3 -1 13
2017-07-27 16:00:00 37.1 12 Sudoeste 27 Sudoeste 0 949.6 -1 12
2017-07-27 15:00:00 36.4 12 Sur 27 Sudoeste 0 949.9 -0.7 15
2017-07-27 14:00:00 35.8 13 Sudoeste 22 Sudoeste 0 950.3 -0.2 19
2017-07-27 13:00:00 34.8 9 Oeste 19 Sudoeste 0 950.6 0.1 21
2017-07-27 12:00:00 33 11 Sudoeste 17 Sudoeste 0 950.6 0.5 26
2017-07-27 11:00:00 31.5 9 Sudoeste 14 Sudoeste 0 950.5 0.7 29
2017-07-27 10:00:00 29.5 0 Calma 8 Nordeste 0 950.5 1.2 34
2017-07-27 09:00:00 25.4 2 Nordeste 9 Nordeste 0 950.1 1.2 45
2017-07-27 08:00:00 24.8 4 Nordeste 17 Norte 0 949.8 0.9 39
2017-07-27 07:00:00 27.3 10 Norte 27 Nordeste 0 949.3 0.3 33
2017-07-27 06:00:00 27.6 21 Nordeste 35 Nordeste 0 948.9 -0.4 31
2017-07-27 05:00:00 27.6 25 Norte 36 Nordeste 0 948.9 -0.7 31
2017-07-27 04:00:00 27.5 20 Norte 35 Nordeste 0 949 -0.9 31
2017-07-27 03:00:00 27.6 23 Nordeste 41 Nordeste 0 949.3 -0.8 32
2017-07-27 02:00:00 27.3 25 Nordeste 36 Nordeste 0 949.6 -0.2 35
2017-07-27 01:00:00 26.9 23 Norte 30 Norte 0 949.9 0.5 37
2017-07-27 00:00:00 23.5 0 Calma 9 Nordeste 0 950.1 1.1 51
2017-07-26 23:00:00 25.2 3 Sudoeste 8 Norte 0 949.8 1.1 47
2017-07-26 22:00:00 26.9 4 Noroeste 12 Noroeste 0 949.4 1 42
2017-07-26 21:00:00 29.8 5 Oeste 21 Sudoeste 0 949 0.5 37
2017-07-26 20:00:00 32 9 Sudoeste 26 Sur 0 948.7 -0.1 33
2017-07-26 19:00:00 32.8 18 Sudoeste 32 Sudoeste 0 948.4 -0.8 31
2017-07-26 18:00:00 34.5 18 Sudoeste 33 Sudoeste 0 948.5 -1.1 28
2017-07-26 17:00:00 36 13 Oeste 32 Sudoeste 0 948.8 -1.3 26
2017-07-26 16:00:00 35.8 10 Sudoeste 28 Sudoeste 0 949.2 -1.1 24
2017-07-26 15:00:00 34.4 13 Sudoeste 30 Sudoeste 0 949.6 -0.5 29
2017-07-26 14:00:00 33.3 10 Oeste 20 Sudoeste 0 950.1 0.2 29
2017-07-26 13:00:00 31.8 11 Sudoeste 20 Sudoeste 0 950.3 0.6 36
2017-07-26 12:00:00 30.7 10 Sudoeste 16 Sudoeste 0 950.1 0.9 33
2017-07-26 11:00:00 28.8 8 Sudoeste 12 Sudoeste 0 949.9 1.2 36
2017-07-26 10:00:00 27.3 4 Sur 8 Sudoeste 0 949.7 1.2 33
2017-07-26 09:00:00 24.4 3 Sudoeste 9 Nordeste 0 949.2 1.1 34
2017-07-26 08:00:00 23.1 7 Norte 13 Norte 0 948.7 0.6 32
2017-07-26 07:00:00 25 3 Nordeste 17 Norte 0 948.5 0.3 27
2017-07-26 06:00:00 25.8 9 Nordeste 22 Nordeste 0 948.1 -0.3 26
2017-07-26 05:00:00 25.5 18 Nordeste 33 Nordeste 0 948.1 -0.4 27
2017-07-26 04:00:00 25.9 22 Nordeste 37 Norte 0 948.2 -0.3 28
2017-07-26 03:00:00 26.2 27 Norte 37 Norte 0 948.4 -0.1 30
2017-07-26 02:00:00 26.7 25 Norte 34 Nordeste 0 948.5 0.5 29
2017-07-26 01:00:00 26.7 21 Nordeste 27 Nordeste 0 948.5 1.1 28
2017-07-26 00:00:00 27.1 14 Nordeste 24 Nordeste 0 948.5 1.4 28
2017-07-25 23:00:00 27.7 17 Nordeste 21 Norte 0 948 1.2 27
2017-07-25 22:00:00 28.7 16 Norte 22 Norte 0 947.4 0.5 25
2017-07-25 21:00:00 32.3 10 Norte 31 Norte 0 947.1 -0.1 20
2017-07-25 20:00:00 34.7 14 Norte 27 Norte 0 946.8 -0.9 17
2017-07-25 19:00:00 35.6 12 Norte 26 Noroeste 0 946.9 -1.3 17
2017-07-25 18:00:00 36.1 9 Norte 23 Noroeste 0 947.2 -1.6 15
2017-07-25 17:00:00 36.5 8 Noroeste 27 Norte 0 947.7 -1.6 15
2017-07-25 16:00:00 35.7 8 Norte 19 Norte 0 948.2 -1.5 17
2017-07-25 15:00:00 34.2 8 Norte 18 Norte 0 948.8 -1 21
2017-07-25 14:00:00 32.9 8 Norte 18 Norte 0 949.3 -0.6 24
2017-07-25 13:00:00 32.2 6 Norte 14 Norte 0 949.7 0 25
2017-07-25 12:00:00 31.3 10 Nordeste 16 Norte 0 949.8 0.3 23
2017-07-25 11:00:00 29.1 8 Norte 16 Norte 0 949.9 0.6 27
2017-07-25 10:00:00 28.7 10 Norte 21 Norte 0 949.7 0.5 27
2017-07-25 09:00:00 26.3 15 Norte 27 Norte 0 949.5 0.4 27
2017-07-25 08:00:00 25.3 18 Norte 24 Norte 0 949.3 -0.2 28
2017-07-25 07:00:00 24.7 18 Norte 41 Norte 0 949.2 -0.8 31
2017-07-25 06:00:00 23.9 28 Norte 42 Norte 0 949.1 -1.2 38
2017-07-25 05:00:00 24.3 31 Norte 42 Nordeste 0 949.5 -1.3 40
2017-07-25 04:00:00 24 32 Norte 44 Nordeste 0 950 -1.1 45
2017-07-25 03:00:00 23.8 34 Norte 47 Norte 0 950.3 -1.1 50
2017-07-25 02:00:00 24 37 Norte 51 Nordeste 0 950.8 -0.7 51
2017-07-25 01:00:00 24.7 30 Norte 46 Nordeste 0 951.1 -0.3 48
2017-07-25 00:00:00 26 24 Norte 46 Norte 0 951.4 0.2 41
2017-07-24 23:00:00 27.1 14 Norte 24 Noroeste 0 951.5 0.3 35
2017-07-24 22:00:00 27 11 Norte 17 Norte 0 951.4 0 32
2017-07-24 21:00:00 30.7 10 Norte 23 Norte 0 951.2 -0.4 26
2017-07-24 20:00:00 32.8 13 Noroeste 30 Norte 0 951.2 -0.7 23
2017-07-24 19:00:00 33.6 17 Noroeste 31 Noroeste 0 951.4 -1 20
2017-07-24 18:00:00 34.1 10 Norte 37 Noroeste 0 951.6 -1.3 17
2017-07-24 17:00:00 34.2 15 Norte 36 Noroeste 0 951.9 -1.2 21
2017-07-24 16:00:00 33.9 17 Norte 39 Noroeste 0 952.4 -1.1 21
2017-07-24 15:00:00 33.1 15 Norte 33 Norte 0 952.9 -0.6 20
2017-07-24 14:00:00 31.6 14 Norte 32 Noroeste 0 953.1 -0.1 25
2017-07-24 13:00:00 30.5 7 Noroeste 27 Norte 0 953.5 0.4 32
2017-07-24 12:00:00 28.5 24 Norte 44 Norte 0 953.5 0.7 37
2017-07-24 11:00:00 26.4 34 Norte 48 Nordeste 0 953.2 0.6 44
2017-07-24 10:00:00 23.8 36 Norte 50 Nordeste 0 953.1 0.6 52
2017-07-24 09:00:00 22.1 37 Norte 54 Norte 0 952.8 0.4 57
2017-07-24 08:00:00 21 37 Norte 50 Nordeste 0 952.6 0 62
2017-07-24 07:00:00 20.1 37 Norte 50 Norte 0 952.5 -0.3 64
2017-07-24 06:00:00 21.6 35 Norte 49 Nordeste 0 952.4 -0.9 57
2017-07-24 05:00:00 21.9 34 Nordeste 49 Nordeste 0 952.6 -0.8 55
2017-07-24 04:00:00 21.7 36 Norte 51 Norte 0 952.8 -1 54
2017-07-24 03:00:00 22.4 38 Norte 52 Nordeste 0 953.3 -0.1 51
2017-07-24 02:00:00 23.4 36 Norte 51 Norte 0 953.4 0.3 46
2017-07-24 01:00:00 24.7 30 Norte 46 Nordeste 0 953.8 1.5 39
2017-07-24 00:00:00 26.1 25 Norte 46 Norte 0 953.4 1.4 35
2017-07-23 23:00:00 27.8 16 Norte 28 Noroeste 0 953.1 1.3 25
2017-07-23 22:00:00 28.2 17 Norte 27 Noroeste 0 952.3 0.6 23
2017-07-23 21:00:00 30 15 Norte 29 Norte 0 952 0.2 20
2017-07-23 20:00:00 31.8 17 Norte 30 Noroeste 0 951.8 -0.3 19
2017-07-23 19:00:00 33.3 12 Norte 29 Noroeste 0 951.7 -0.9 18
2017-07-23 18:00:00 33.9 12 Noroeste 24 Noroeste 0 951.8 -1.1 17
2017-07-23 17:00:00 35.4 10 Sudoeste 23 Noroeste 0 952.1 -1.2 17
2017-07-23 16:00:00 34.8 12 Sudoeste 28 Sudoeste 0 952.6 -0.8 17
2017-07-23 15:00:00 33.7 12 Sur 23 Sudoeste 0 952.9 -0.4 18
2017-07-23 14:00:00 32.8 13 Sudoeste 27 Sudoeste 0 953.3 0.4 20
2017-07-23 13:00:00 31.6 5 Nordeste 22 Noroeste 0 953.4 0.8 21
2017-07-23 12:00:00 30.5 5 Sudeste 19 Norte 0 953.3 1.1 22
2017-07-23 11:00:00 29 6 Oeste 21 Nordeste 0 952.9 1.2 23
2017-07-23 10:00:00 26.1 16 Nordeste 29 Norte 0 952.6 1.3 35
2017-07-23 09:00:00 23.4 20 Nordeste 34 Nordeste 0 952.2 1.3 43
2017-07-23 08:00:00 21.6 14 Norte 37 Nordeste 0 951.7 0.9 48
2017-07-23 07:00:00 21.7 27 Norte 40 Nordeste 0 951.3 0.5 46
2017-07-23 06:00:00 21.5 25 Norte 42 Norte 0 950.9 -0.2 45
2017-07-23 05:00:00 20.7 27 Norte 47 Nordeste 0 950.8 -0.5 50
2017-07-23 04:00:00 20.9 34 Nordeste 49 Nordeste 0 950.8 -0.3 54
2017-07-23 03:00:00 20.4 35 Norte 50 Nordeste 0 951.1 0.1 58
2017-07-23 02:00:00 21 26 Norte 49 Norte 0 951.3 0.5 57
2017-07-23 01:00:00 22.5 30 Norte 45 Norte 0 951.1 1 50
2017-07-23 00:00:00 23.7 17 Norte 29 Noroeste 0 951 1.7 38
2017-07-22 23:00:00 21.6 3 Norte 10 Nordeste 0 950.8 2 40
2017-07-22 22:00:00 24.5 5 Noroeste 18 Sudoeste 0 950.1 1.3 40
2017-07-22 21:00:00 27.9 10 Sudoeste 26 Sudoeste 0 949.3 0.4 32
2017-07-22 20:00:00 31.2 7 Noroeste 18 Oeste 0 948.8 -0.4 22
2017-07-22 19:00:00 31.6 8 Sudoeste 22 Oeste 0 948.8 -0.7 20
2017-07-22 18:00:00 32.5 9 Sudoeste 23 Sudoeste 0 948.9 -1 18
2017-07-22 17:00:00 32.9 5 Sudoeste 23 Sudoeste 0 949.2 -1 17
2017-07-22 16:00:00 31.4 8 Norte 21 Oeste 0 949.5 -0.6 19
2017-07-22 15:00:00 30.9 8 Oeste 21 Sudoeste 0 949.9 -0.2 19
2017-07-22 14:00:00 28.8 6 Sudoeste 18 Oeste 0 950.2 0.1 23
2017-07-22 13:00:00 28.1 9 Sudoeste 19 Sudoeste 0 950.1 0.5 26
2017-07-22 12:00:00 26.7 11 Sudoeste 21 Sudoeste 0 950.1 1.1 30
2017-07-22 11:00:00 24.4 10 Sudoeste 17 Sudoeste 0 950.1 1.6 36
2017-07-22 10:00:00 22.8 5 Sur 10 Sudeste 0 949.6 1.3 39
2017-07-22 09:00:00 18.9 0 Calma 7 Nordeste 0 949 0.8 45
2017-07-22 08:00:00 15.7 3 Noroeste 5 Noroeste 0 948.5 0.3 55
2017-07-22 07:00:00 16.5 3 Sudeste 8 Nordeste 0 948.3 0.1 50
2017-07-22 06:00:00 16.2 5 Oeste 12 Oeste 0 948.2 -0.1 57
2017-07-22 05:00:00 16.2 6 Noroeste 11 Oeste 0 948.2 0 60
2017-07-22 04:00:00 17.7 7 Norte 38 Norte 0 948.2 -0.1 53
2017-07-22 03:00:00 18 22 Norte 47 Nordeste 0 948.3 0 53
2017-07-22 02:00:00 18.3 23 Norte 47 Norte 0 948.2 -0.1 52
2017-07-22 01:00:00 19.7 27 Norte 49 Norte 0 948.3 0.6 47
2017-07-22 00:00:00 21.3 29 Norte 43 Norte 0 948.3 0.9 42
2017-07-21 23:00:00 22.3 13 Noroeste 21 Norte 0 948.3 1.1 33
2017-07-21 22:00:00 22.2 10 Norte 14 Norte 0 947.7 0.6 37
2017-07-21 21:00:00 25.8 7 Norte 20 Norte 0 947.4 -0.1 30
2017-07-21 20:00:00 27.6 12 Norte 30 Norte 0 947.2 -0.4 25
2017-07-21 19:00:00 28 13 Norte 30 Norte 0 947.1 -0.7 24
2017-07-21 18:00:00 29.1 8 Norte 25 Norte 0 947.5 -0.6 24
2017-07-21 17:00:00 28.5 11 Norte 49 Norte 0 947.6 -0.8 27
2017-07-21 16:00:00 28.6 15 Sudoeste 28 Sudoeste 0 947.8 -0.7 28
2017-07-21 15:00:00 28.3 10 Sudoeste 26 Sudoeste 0 948.1 -0.4 29
2017-07-21 14:00:00 26.6 13 Sur 23 Sudoeste 0 948.4 0.2 31
2017-07-21 13:00:00 25.4 10 Sudoeste 17 Sudoeste 0 948.5 0.5 34
2017-07-21 12:00:00 22.8 8 Sudoeste 18 Sudoeste 0 948.5 1 37
2017-07-21 11:00:00 21 10 Sur 17 Sur 0 948.2 1.1 44
2017-07-21 10:00:00 19.7 4 Sur 9 Sudeste 0 948 1.1 47
2017-07-21 09:00:00 14.8 0 Calma 5 Nordeste 0 947.5 0.8 63
2017-07-21 08:00:00 11.1 3 Norte 9 Este 0 947.1 0.5 74
2017-07-21 07:00:00 11.7 6 Nordeste 16 Norte 0 946.9 0.2 75
2017-07-21 06:00:00 13.4 14 Norte 31 Norte 0 946.7 -0.3 67
2017-07-21 05:00:00 14.4 17 Norte 34 Norte 0 946.6 -0.7 64
2017-07-21 04:00:00 14.9 18 Norte 34 Norte 0 946.7 -0.6 64
2017-07-21 03:00:00 15.9 22 Norte 46 Norte 0 947 -0.3 59
2017-07-21 02:00:00 16.4 27 Norte 51 Norte 0 947.3 0.2 59
2017-07-21 01:00:00 17.7 37 Norte 57 Norte 0 947.3 0.4 58
2017-07-21 00:00:00 19.1 34 Norte 53 Norte 0 947.3 0.6 54
2017-07-20 23:00:00 21.6 31 Norte 50 Norte 0 947.1 0.6 42
2017-07-20 22:00:00 23.6 15 Norte 28 Norte 0 946.9 0.1 31
2017-07-20 21:00:00 25.2 12 Noroeste 30 Noroeste 0 946.7 -0.2 32
2017-07-20 20:00:00 27.3 17 Noroeste 31 Norte 0 946.5 -0.7 28
2017-07-20 19:00:00 28.3 17 Norte 32 Noroeste 0 946.8 -1 28
2017-07-20 18:00:00 29.7 14 Norte 30 Norte 0 946.9 -1.4 23
2017-07-20 17:00:00 30.4 10 Noroeste 24 Norte 0 947.2 -1.6 23
2017-07-20 16:00:00 30.3 7 Sudoeste 21 Oeste 0 947.8 -1.4 22
2017-07-20 15:00:00 28.8 9 Oeste 22 Sudoeste 0 948.3 -1 28
2017-07-20 14:00:00 28.2 12 Sur 23 Sudoeste 0 948.8 -0.6 31
2017-07-20 13:00:00 27.5 8 Sudoeste 18 Sudoeste 0 949.2 -0.3 35
2017-07-20 12:00:00 25.8 9 Sudoeste 18 Sur 0 949.3 0.1 40
2017-07-20 11:00:00 23.3 9 Sudoeste 15 Sudoeste 0 949.4 0.5 46
2017-07-20 10:00:00 21.1 5 Sudoeste 9 Sudoeste 0 949.5 0.7 51
2017-07-20 09:00:00 17.7 5 Nordeste 22 Norte 0 949.2 0.5 68
2017-07-20 08:00:00 15.7 15 Norte 31 Norte 0 948.9 0 76
2017-07-20 07:00:00 15.8 21 Norte 32 Noroeste 0 948.8 -0.3 79
2017-07-20 06:00:00 16.4 20 Norte 39 Nordeste 0 948.7 -0.7 78
2017-07-20 05:00:00 16.4 21 Norte 48 Nordeste 0 948.9 -0.7 80
2017-07-20 04:00:00 17.3 18 Norte 46 Noroeste 0 949.1 -0.8 77
2017-07-20 03:00:00 18.5 32 Norte 46 Norte 0 949.4 -0.8 73
2017-07-20 02:00:00 19.6 28 Norte 46 Norte 0 949.6 -0.4 68
2017-07-20 01:00:00 20.2 32 Norte 46 Norte 0 949.9 0.4 67
2017-07-20 00:00:00 21.5 24 Norte 36 Noroeste 0 950.2 1 59
2017-07-19 23:00:00 22.8 19 Norte 34 Norte 0 950 0.9 53
2017-07-19 22:00:00 24.3 14 Noroeste 26 Noroeste 0 949.5 0.6 47
2017-07-19 21:00:00 26.7 14 Noroeste 25 Oeste 0 949.2 0.1 38
2017-07-19 20:00:00 29.1 16 Noroeste 32 Oeste 0 949.1 -0.3 28
2017-07-19 19:00:00 30 14 Noroeste 31 Oeste 0 948.9 -0.7 28
2017-07-19 18:00:00 30.1 18 Noroeste 34 Noroeste 0 949.1 -0.5 27
2017-07-19 17:00:00 30.8 15 Noroeste 30 Noroeste 0 949.4 -0.4 25
2017-07-19 16:00:00 29.9 15 Norte 29 Norte 0 949.6 -0.5 26
2017-07-19 15:00:00 31 12 Oeste 24 Norte 0 949.6 -0.6 23
2017-07-19 14:00:00 30.5 9 Oeste 24 Sudoeste 0 949.8 -0.3 25
2017-07-19 13:00:00 28.6 8 Oeste 21 Oeste 0 950.1 0.1 30
2017-07-19 12:00:00 27.2 3 Noroeste 27 Norte 0 950.2 0.7 33
2017-07-19 11:00:00 25.4 12 Nordeste 26 Nordeste 0 950.1 0.9 36
2017-07-19 10:00:00 23.3 4 Oeste 14 Oeste 0 950 1.2 53
2017-07-19 09:00:00 20.6 4 Oeste 14 Noroeste 0 949.5 0.9 62
2017-07-19 08:00:00 17.4 5 Noroeste 13 Norte 0 949.2 0.6 78
2017-07-19 07:00:00 17.4 6 Noroeste 12 Oeste 0 948.8 0.4 80
2017-07-19 06:00:00 17.2 6 Oeste 12 Nordeste 0 948.6 0.1 84
2017-07-19 05:00:00 18.5 3 Sudoeste 26 Nordeste 0 948.6 -0.1 77
2017-07-19 04:00:00 19.5 12 Norte 23 Norte 0 948.4 -0.1 72
2017-07-19 03:00:00 20.5 13 Norte 34 Norte 0 948.5 0.3 69
2017-07-19 02:00:00 21.7 18 Norte 36 Noroeste 0 948.7 0.7 65
2017-07-19 01:00:00 22.9 21 Norte 36 Norte 0 948.5 1 57
2017-07-19 00:00:00 24 24 Norte 36 Norte 0 948.2 1 45